Nord Glory — 3FIA5 — position and weather

sailwx.info

Track history (hours):
 
Tides and Currents Weather Stations Pressure Air Temp Water Temp Dewpoint Dewpoint Depression Visibility Wind Speed Wind Dir Waves Ship Positions

Nord Glory

Last reported at 2016-Sep-19 23:32 UTC. Time now 2016-Sep-27 13:48 UTC.
Position S 02°03' W 044°05'.

Length 190 m; draft 9.8 m.

Type: Cargo ship. MMSI: 354206000.

Date/timePositionNaut miles runAvg speedWind from/ knotsBaromVisibWave heightAir tempDewpointWater temp
2016-Sep-19 23:32S 02°03' W 044°05'36 9.1
2016-Sep-19 19:33S 02°34' W 044°23'2 1.8
2016-Sep-19 18:33S 02°35' W 044°22'0 0.0
2016-Sep-19 16:27S 02°35' W 044°22'0 0.0
2016-Sep-19 14:33S 02°35' W 044°22'0 0.0
2016-Sep-19 13:33S 02°35' W 044°22'0 0.0
2016-Sep-19 12:33S 02°35' W 044°22'0 0.0
2016-Sep-19 11:33S 02°35' W 044°22'0 0.0
2016-Sep-19 09:33S 02°35' W 044°22'0 0.0
2016-Sep-19 07:33S 02°35' W 044°22'0 0.0
2016-Sep-19 06:33S 02°35' W 044°22'0 0.0
2016-Sep-19 03:24S 02°35' W 044°22'0 0.0
2016-Sep-19 02:33S 02°35' W 044°22'0 0.0
2016-Sep-19 00:33S 02°35' W 044°22'0 0.0
2016-Sep-18 19:33S 02°35' W 044°22'0 0.0
2016-Sep-18 15:33S 02°35' W 044°22'0 0.0
2016-Sep-18 14:33S 02°35' W 044°22'0 0.0
2016-Sep-18 10:33S 02°35' W 044°22'0 0.0
2016-Sep-18 09:33S 02°35' W 044°22'0 0.0
2016-Sep-18 02:33S 02°35' W 044°22'0 0.0
2016-Sep-18 01:33S 02°35' W 044°22'0 0.0
2016-Sep-18 00:33S 02°35' W 044°22'0 0.0
2016-Sep-17 22:33S 02°35' W 044°22'0 0.0
2016-Sep-17 21:33S 02°35' W 044°22'0 0.0
2016-Sep-17 20:27S 02°35' W 044°22'0 0.0
2016-Sep-17 19:15S 02°35' W 044°22'0 0.0
2016-Sep-17 13:33S 02°35' W 044°22'0 0.0
2016-Sep-17 12:33S 02°35' W 044°22'0 0.0
2016-Sep-17 10:33S 02°35' W 044°22'0 0.0
2016-Sep-17 09:34S 02°35' W 044°22'4 4.3
2016-Sep-17 08:34S 02°31' W 044°23'9 8.8
2016-Sep-17 07:34S 02°23' W 044°19'16 8.0
2016-Sep-17 05:34S 02°10' W 044°10'1 1.1
2016-Sep-17 04:32S 02°10' W 044°09'0 0.1
2016-Sep-17 00:32S 02°10' W 044°09'0 0.0
2016-Sep-16 17:28S 02°10' W 044°09'0 0.1
2016-Sep-16 15:31S 02°10' W 044°09'0 0.1
2016-Sep-16 12:31S 02°10' W 044°09'0 0.1
2016-Sep-16 09:31S 02°10' W 044°09'0 0.0
2016-Sep-16 07:31S 02°10' W 044°09'0 0.0
2016-Sep-16 03:31S 02°10' W 044°09'0 0.3
2016-Sep-16 02:31S 02°10' W 044°09'0 0.0
2016-Sep-16 00:31S 02°10' W 044°09'0 0.1
2016-Sep-15 22:31S 02°10' W 044°09'0 0.1
2016-Sep-15 21:31S 02°10' W 044°09'0 0.0
2016-Sep-15 20:28S 02°10' W 044°09'0 0.0
2016-Sep-15 18:31S 02°10' W 044°09'0 0.1
2016-Sep-15 12:31S 02°10' W 044°09'0 0.0
2016-Sep-15 11:28S 02°10' W 044°09'0 0.0
2016-Sep-15 04:16S 02°10' W 044°09'0 0.0
2016-Sep-15 03:31S 02°10' W 044°09'0 0.1
2016-Sep-15 01:31S 02°10' W 044°09'0 0.0
2016-Sep-14 22:31S 02°10' W 044°09'0 0.2
2016-Sep-14 21:31S 02°10' W 044°09'0 0.0
2016-Sep-14 17:23S 02°10' W 044°09'0 0.0
2016-Sep-14 16:08S 02°10' W 044°09'0 0.1
2016-Sep-14 13:31S 02°10' W 044°09'0 0.1
2016-Sep-14 12:31S 02°10' W 044°09'0 0.0
2016-Sep-14 10:31S 02°10' W 044°09'0 0.2
2016-Sep-14 09:31S 02°10' W 044°09'0 0.1
2016-Sep-14 08:31S 02°10' W 044°09'0 0.0
2016-Sep-14 07:31S 02°10' W 044°09'0 0.0
2016-Sep-14 06:28S 02°10' W 044°09'0 0.0
2016-Sep-14 03:31S 02°10' W 044°09'0 0.1
2016-Sep-13 22:31S 02°10' W 044°09'0 0.1
2016-Sep-13 20:31S 02°10' W 044°09'0 0.0
2016-Sep-13 18:31S 02°10' W 044°09'0 0.0
2016-Sep-13 17:34S 02°10' W 044°09'0 0.0
2016-Sep-13 16:31S 02°10' W 044°09'0 0.1
2016-Sep-13 11:31S 02°10' W 044°09'0 0.0
2016-Sep-13 09:31S 02°10' W 044°09'0 0.1
2016-Sep-13 07:31S 02°10' W 044°09'0 0.0
2016-Sep-13 06:34S 02°10' W 044°09'0 0.0
2016-Sep-13 04:34S 02°10' W 044°09'2 1.2
2016-Sep-13 02:34S 02°08' W 044°10'  
Track history (hours):
 
Tides and Currents Weather Stations Pressure Air Temp Water Temp Dewpoint Dewpoint Depression Visibility Wind Speed Wind Dir Waves Ship Positions

Nord Glory

Last reported at 2016-Sep-19 23:32 UTC. Time now 2016-Sep-27 13:48 UTC.
Position S 02°03' W 044°05'.

Length 190 m; draft 9.8 m.

Type: Cargo ship. MMSI: 354206000.

Date/timePositionNaut miles runAvg speedWind from/ knotsBaromVisibWave heightAir tempDewpointWater temp
2016-Sep-19 23:32S 02°03' W 044°05'36 9.1
2016-Sep-19 19:33S 02°34' W 044°23'2 1.8
2016-Sep-19 18:33S 02°35' W 044°22'0 0.0
2016-Sep-19 16:27S 02°35' W 044°22'0 0.0
2016-Sep-19 14:33S 02°35' W 044°22'0 0.0
2016-Sep-19 13:33S 02°35' W 044°22'0 0.0
2016-Sep-19 12:33S 02°35' W 044°22'0 0.0
2016-Sep-19 11:33S 02°35' W 044°22'0 0.0
2016-Sep-19 09:33S 02°35' W 044°22'0 0.0
2016-Sep-19 07:33S 02°35' W 044°22'0 0.0
2016-Sep-19 06:33S 02°35' W 044°22'0 0.0
2016-Sep-19 03:24S 02°35' W 044°22'0 0.0
2016-Sep-19 02:33S 02°35' W 044°22'0 0.0
2016-Sep-19 00:33S 02°35' W 044°22'0 0.0
2016-Sep-18 19:33S 02°35' W 044°22'0 0.0
2016-Sep-18 15:33S 02°35' W 044°22'0 0.0
2016-Sep-18 14:33S 02°35' W 044°22'0 0.0
2016-Sep-18 10:33S 02°35' W 044°22'0 0.0
2016-Sep-18 09:33S 02°35' W 044°22'0 0.0
2016-Sep-18 02:33S 02°35' W 044°22'0 0.0
2016-Sep-18 01:33S 02°35' W 044°22'0 0.0
2016-Sep-18 00:33S 02°35' W 044°22'0 0.0
2016-Sep-17 22:33S 02°35' W 044°22'0 0.0
2016-Sep-17 21:33S 02°35' W 044°22'0 0.0
2016-Sep-17 20:27S 02°35' W 044°22'0 0.0
2016-Sep-17 19:15S 02°35' W 044°22'0 0.0
2016-Sep-17 13:33S 02°35' W 044°22'0 0.0
2016-Sep-17 12:33S 02°35' W 044°22'0 0.0
2016-Sep-17 10:33S 02°35' W 044°22'0 0.0
2016-Sep-17 09:34S 02°35' W 044°22'4 4.3
2016-Sep-17 08:34S 02°31' W 044°23'9 8.8
2016-Sep-17 07:34S 02°23' W 044°19'16 8.0
2016-Sep-17 05:34S 02°10' W 044°10'1 1.1
2016-Sep-17 04:32S 02°10' W 044°09'0 0.1
2016-Sep-17 00:32S 02°10' W 044°09'0 0.0
2016-Sep-16 17:28S 02°10' W 044°09'0 0.1
2016-Sep-16 15:31S 02°10' W 044°09'0 0.1
2016-Sep-16 12:31S 02°10' W 044°09'0 0.1
2016-Sep-16 09:31S 02°10' W 044°09'0 0.0
2016-Sep-16 07:31S 02°10' W 044°09'0 0.0
2016-Sep-16 03:31S 02°10' W 044°09'0 0.3
2016-Sep-16 02:31S 02°10' W 044°09'0 0.0
2016-Sep-16 00:31S 02°10' W 044°09'0 0.1
2016-Sep-15 22:31S 02°10' W 044°09'0 0.1
2016-Sep-15 21:31S 02°10' W 044°09'0 0.0
2016-Sep-15 20:28S 02°10' W 044°09'0 0.0
2016-Sep-15 18:31S 02°10' W 044°09'0 0.1
2016-Sep-15 12:31S 02°10' W 044°09'0 0.0
2016-Sep-15 11:28S 02°10' W 044°09'0 0.0
2016-Sep-15 04:16S 02°10' W 044°09'0 0.0
2016-Sep-15 03:31S 02°10' W 044°09'0 0.1
2016-Sep-15 01:31S 02°10' W 044°09'0 0.0
2016-Sep-14 22:31S 02°10' W 044°09'0 0.2
2016-Sep-14 21:31S 02°10' W 044°09'0 0.0
2016-Sep-14 17:23S 02°10' W 044°09'0 0.0
2016-Sep-14 16:08S 02°10' W 044°09'0 0.1
2016-Sep-14 13:31S 02°10' W 044°09'0 0.1
2016-Sep-14 12:31S 02°10' W 044°09'0 0.0
2016-Sep-14 10:31S 02°10' W 044°09'0 0.2
2016-Sep-14 09:31S 02°10' W 044°09'0 0.1
2016-Sep-14 08:31S 02°10' W 044°09'0 0.0
2016-Sep-14 07:31S 02°10' W 044°09'0 0.0
2016-Sep-14 06:28S 02°10' W 044°09'0 0.0
2016-Sep-14 03:31S 02°10' W 044°09'0 0.1
2016-Sep-13 22:31S 02°10' W 044°09'0 0.1
2016-Sep-13 20:31S 02°10' W 044°09'0 0.0
2016-Sep-13 18:31S 02°10' W 044°09'0 0.0
2016-Sep-13 17:34S 02°10' W 044°09'0 0.0
2016-Sep-13 16:31S 02°10' W 044°09'0 0.1
2016-Sep-13 11:31S 02°10' W 044°09'0 0.0
2016-Sep-13 09:31S 02°10' W 044°09'0 0.1
2016-Sep-13 07:31S 02°10' W 044°09'0 0.0
2016-Sep-13 06:34S 02°10' W 044°09'0 0.0
2016-Sep-13 04:34S 02°10' W 044°09'2 1.2
2016-Sep-13 02:34S 02°08' W 044°10'  

Dump ship's entire track history